sensor_id;sensor_type;location;lat;lon;timestamp;temperature;humidity
68943;DHT22;60852;52.190;4.422;2023-07-02T00:01:48;19.06;54.63
68943;DHT22;60852;52.190;4.422;2023-07-02T00:04:14;19.06;55.51
68943;DHT22;60852;52.190;4.422;2023-07-02T00:06:51;19.05;56.32
68943;DHT22;60852;52.190;4.422;2023-07-02T00:09:16;19.03;56.78
68943;DHT22;60852;52.190;4.422;2023-07-02T00:11:44;19.02;57.05
68943;DHT22;60852;52.190;4.422;2023-07-02T00:14:12;18.99;57.80
68943;DHT22;60852;52.190;4.422;2023-07-02T00:16:42;19.02;58.50
68943;DHT22;60852;52.190;4.422;2023-07-02T00:19:08;18.94;59.18
68943;DHT22;60852;52.190;4.422;2023-07-02T00:21:34;18.89;60.54
68943;DHT22;60852;52.190;4.422;2023-07-02T00:24:03;18.84;59.73
68943;DHT22;60852;52.190;4.422;2023-07-02T00:26:29;18.85;59.93
68943;DHT22;60852;52.190;4.422;2023-07-02T00:28:55;18.89;60.35
68943;DHT22;60852;52.190;4.422;2023-07-02T00:31:22;18.92;60.69
68943;DHT22;60852;52.190;4.422;2023-07-02T00:33:48;18.84;58.69
68943;DHT22;60852;52.190;4.422;2023-07-02T00:36:14;18.79;58.01
68943;DHT22;60852;52.190;4.422;2023-07-02T00:38:45;18.79;57.76
68943;DHT22;60852;52.190;4.422;2023-07-02T00:41:11;18.78;57.75
68943;DHT22;60852;52.190;4.422;2023-07-02T00:43:37;18.79;57.25
68943;DHT22;60852;52.190;4.422;2023-07-02T00:46:19;18.76;58.61
68943;DHT22;60852;52.190;4.422;2023-07-02T00:48:50;18.79;60.15
68943;DHT22;60852;52.190;4.422;2023-07-02T00:51:24;18.75;61.43
68943;DHT22;60852;52.190;4.422;2023-07-02T00:53:52;18.67;60.68
68943;DHT22;60852;52.190;4.422;2023-07-02T00:56:18;18.54;58.55
68943;DHT22;60852;52.190;4.422;2023-07-02T00:58:46;18.50;58.59
68943;DHT22;60852;52.190;4.422;2023-07-02T01:01:25;18.50;58.18
68943;DHT22;60852;52.190;4.422;2023-07-02T01:03:54;18.44;57.40
68943;DHT22;60852;52.190;4.422;2023-07-02T01:06:25;18.41;57.67
68943;DHT22;60852;52.190;4.422;2023-07-02T01:08:55;18.40;57.60
68943;DHT22;60852;52.190;4.422;2023-07-02T01:11:25;18.38;58.33
68943;DHT22;60852;52.190;4.422;2023-07-02T01:13:55;18.41;58.71
68943;DHT22;60852;52.190;4.422;2023-07-02T01:16:22;18.37;58.88
68943;DHT22;60852;52.190;4.422;2023-07-02T01:18:49;18.31;58.19
68943;DHT22;60852;52.190;4.422;2023-07-02T01:21:17;18.26;57.90
68943;DHT22;60852;52.190;4.422;2023-07-02T01:23:44;18.17;57.80
68943;DHT22;60852;52.190;4.422;2023-07-02T01:26:09;18.20;58.21
68943;DHT22;60852;52.190;4.422;2023-07-02T01:28:35;18.24;58.75
68943;DHT22;60852;52.190;4.422;2023-07-02T01:31:04;18.23;59.20
68943;DHT22;60852;52.190;4.422;2023-07-02T01:33:31;18.23;58.46
68943;DHT22;60852;52.190;4.422;2023-07-02T01:35:56;18.29;59.03
68943;DHT22;60852;52.190;4.422;2023-07-02T01:38:22;18.30;59.26
68943;DHT22;60852;52.190;4.422;2023-07-02T01:40:48;18.34;58.67
68943;DHT22;60852;52.190;4.422;2023-07-02T01:43:13;18.31;58.58
68943;DHT22;60852;52.190;4.422;2023-07-02T01:45:41;18.31;59.15
68943;DHT22;60852;52.190;4.422;2023-07-02T01:48:07;18.29;58.99
68943;DHT22;60852;52.190;4.422;2023-07-02T01:50:32;18.26;59.44
68943;DHT22;60852;52.190;4.422;2023-07-02T01:52:58;18.24;59.32
68943;DHT22;60852;52.190;4.422;2023-07-02T01:55:24;18.23;59.22
68943;DHT22;60852;52.190;4.422;2023-07-02T01:57:50;18.11;58.94
68943;DHT22;60852;52.190;4.422;2023-07-02T02:00:15;18.11;59.90
68943;DHT22;60852;52.190;4.422;2023-07-02T02:02:42;18.09;59.83
68943;DHT22;60852;52.190;4.422;2023-07-02T02:05:08;18.04;59.41
68943;DHT22;60852;52.190;4.422;2023-07-02T02:07:35;18.01;59.46
68943;DHT22;60852;52.190;4.422;2023-07-02T02:10:02;17.97;59.88
68943;DHT22;60852;52.190;4.422;2023-07-02T02:12:28;17.96;59.33
68943;DHT22;60852;52.190;4.422;2023-07-02T02:14:54;17.89;60.01
68943;DHT22;60852;52.190;4.422;2023-07-02T02:17:19;17.93;59.78
68943;DHT22;60852;52.190;4.422;2023-07-02T02:19:45;17.90;59.61
68943;DHT22;60852;52.190;4.422;2023-07-02T02:22:10;17.92;59.01
68943;DHT22;60852;52.190;4.422;2023-07-02T02:24:36;17.86;58.40
68943;DHT22;60852;52.190;4.422;2023-07-02T02:27:01;17.83;58.35
68943;DHT22;60852;52.190;4.422;2023-07-02T02:29:27;17.85;59.19
68943;DHT22;60852;52.190;4.422;2023-07-02T02:31:52;17.80;59.32
68943;DHT22;60852;52.190;4.422;2023-07-02T02:34:18;17.75;58.59
68943;DHT22;60852;52.190;4.422;2023-07-02T02:36:43;17.79;59.29
68943;DHT22;60852;52.190;4.422;2023-07-02T02:39:09;17.79;60.43
68943;DHT22;60852;52.190;4.422;2023-07-02T02:41:34;17.75;60.54
68943;DHT22;60852;52.190;4.422;2023-07-02T02:44:00;17.69;60.51
68943;DHT22;60852;52.190;4.422;2023-07-02T02:46:25;17.68;61.71
68943;DHT22;60852;52.190;4.422;2023-07-02T02:48:51;17.63;62.06
68943;DHT22;60852;52.190;4.422;2023-07-02T02:51:19;17.58;62.25
68943;DHT22;60852;52.190;4.422;2023-07-02T02:53:45;17.53;62.06
68943;DHT22;60852;52.190;4.422;2023-07-02T02:56:11;17.51;61.80
68943;DHT22;60852;52.190;4.422;2023-07-02T02:58:36;17.43;61.22
68943;DHT22;60852;52.190;4.422;2023-07-02T03:01:02;17.45;62.04
68943;DHT22;60852;52.190;4.422;2023-07-02T03:03:38;17.38;61.52
68943;DHT22;60852;52.190;4.422;2023-07-02T03:06:05;17.38;61.84
68943;DHT22;60852;52.190;4.422;2023-07-02T03:08:30;17.32;61.72
68943;DHT22;60852;52.190;4.422;2023-07-02T03:10:56;17.34;62.01
68943;DHT22;60852;52.190;4.422;2023-07-02T03:13:22;17.31;62.44
68943;DHT22;60852;52.190;4.422;2023-07-02T03:15:47;17.31;63.06
68943;DHT22;60852;52.190;4.422;2023-07-02T03:18:13;17.27;62.55
68943;DHT22;60852;52.190;4.422;2023-07-02T03:20:38;17.21;62.62
68943;DHT22;60852;52.190;4.422;2023-07-02T03:23:04;17.24;62.58
68943;DHT22;60852;52.190;4.422;2023-07-02T03:25:29;17.27;63.69
68943;DHT22;60852;52.190;4.422;2023-07-02T03:27:55;17.27;63.60
68943;DHT22;60852;52.190;4.422;2023-07-02T03:30:20;17.24;63.42
68943;DHT22;60852;52.190;4.422;2023-07-02T03:32:45;17.20;63.66
68943;DHT22;60852;52.190;4.422;2023-07-02T03:35:11;17.14;64.35
68943;DHT22;60852;52.190;4.422;2023-07-02T03:37:37;17.17;64.42
68943;DHT22;60852;52.190;4.422;2023-07-02T03:40:02;17.18;64.78
68943;DHT22;60852;52.190;4.422;2023-07-02T03:42:28;17.14;64.36
68943;DHT22;60852;52.190;4.422;2023-07-02T03:44:53;17.12;63.90
68943;DHT22;60852;52.190;4.422;2023-07-02T03:47:19;17.14;64.03
68943;DHT22;60852;52.190;4.422;2023-07-02T03:49:45;17.20;64.45
68943;DHT22;60852;52.190;4.422;2023-07-02T03:52:10;17.15;64.62
68943;DHT22;60852;52.190;4.422;2023-07-02T03:54:36;17.17;64.94
68943;DHT22;60852;52.190;4.422;2023-07-02T03:57:01;17.17;64.34
68943;DHT22;60852;52.190;4.422;2023-07-02T03:59:27;17.14;64.03
68943;DHT22;60852;52.190;4.422;2023-07-02T04:01:52;17.12;64.07
68943;DHT22;60852;52.190;4.422;2023-07-02T04:04:18;17.11;63.80
68943;DHT22;60852;52.190;4.422;2023-07-02T04:06:43;17.15;64.20
68943;DHT22;60852;52.190;4.422;2023-07-02T04:09:09;17.17;63.98
68943;DHT22;60852;52.190;4.422;2023-07-02T04:11:35;17.20;63.44
68943;DHT22;60852;52.190;4.422;2023-07-02T04:14:00;17.17;63.09
68943;DHT22;60852;52.190;4.422;2023-07-02T04:16:26;17.22;63.18
68943;DHT22;60852;52.190;4.422;2023-07-02T04:18:51;17.20;62.97
68943;DHT22;60852;52.190;4.422;2023-07-02T04:21:17;17.20;62.66
68943;DHT22;60852;52.190;4.422;2023-07-02T04:23:42;17.43;62.62
68943;DHT22;60852;52.190;4.422;2023-07-02T04:26:07;17.93;61.00
68943;DHT22;60852;52.190;4.422;2023-07-02T04:28:33;18.30;59.90
68943;DHT22;60852;52.190;4.422;2023-07-02T04:30:59;18.30;60.03
68943;DHT22;60852;52.190;4.422;2023-07-02T04:33:24;18.26;61.25
68943;DHT22;60852;52.190;4.422;2023-07-02T04:35:49;18.14;61.09
68943;DHT22;60852;52.190;4.422;2023-07-02T04:38:16;18.00;61.28
68943;DHT22;60852;52.190;4.422;2023-07-02T04:40:42;17.96;61.66
68943;DHT22;60852;52.190;4.422;2023-07-02T04:43:10;17.90;62.05
68943;DHT22;60852;52.190;4.422;2023-07-02T04:45:36;17.92;62.68
68943;DHT22;60852;52.190;4.422;2023-07-02T04:48:02;17.93;62.75
68943;DHT22;60852;52.190;4.422;2023-07-02T04:50:28;17.94;63.00
68943;DHT22;60852;52.190;4.422;2023-07-02T04:52:53;17.97;63.64
68943;DHT22;60852;52.190;4.422;2023-07-02T04:55:21;18.01;63.52
68943;DHT22;60852;52.190;4.422;2023-07-02T04:57:46;18.01;64.12
68943;DHT22;60852;52.190;4.422;2023-07-02T05:00:12;18.03;63.93
68943;DHT22;60852;52.190;4.422;2023-07-02T05:02:38;18.01;62.95
68943;DHT22;60852;52.190;4.422;2023-07-02T05:05:04;18.09;63.57
68943;DHT22;60852;52.190;4.422;2023-07-02T05:07:29;18.18;62.96
68943;DHT22;60852;52.190;4.422;2023-07-02T05:09:55;18.27;61.91
68943;DHT22;60852;52.190;4.422;2023-07-02T05:12:20;18.65;61.71
68943;DHT22;60852;52.190;4.422;2023-07-02T05:14:46;18.96;60.35
68943;DHT22;60852;52.190;4.422;2023-07-02T05:17:12;19.16;59.15
68943;DHT22;60852;52.190;4.422;2023-07-02T05:19:40;19.84;57.19
68943;DHT22;60852;52.190;4.422;2023-07-02T05:22:06;20.33;56.23
68943;DHT22;60852;52.190;4.422;2023-07-02T05:24:31;21.07;54.87
68943;DHT22;60852;52.190;4.422;2023-07-02T05:26:57;21.41;53.83
68943;DHT22;60852;52.190;4.422;2023-07-02T05:29:23;21.62;52.75
68943;DHT22;60852;52.190;4.422;2023-07-02T05:31:48;21.76;52.39
68943;DHT22;60852;52.190;4.422;2023-07-02T05:34:14;21.86;51.20
68943;DHT22;60852;52.190;4.422;2023-07-02T05:36:39;21.59;51.89
68943;DHT22;60852;52.190;4.422;2023-07-02T05:39:05;21.08;53.66
68943;DHT22;60852;52.190;4.422;2023-07-02T05:41:30;21.71;52.31
68943;DHT22;60852;52.190;4.422;2023-07-02T05:43:59;22.00;51.13
68943;DHT22;60852;52.190;4.422;2023-07-02T05:46:25;22.39;50.21
68943;DHT22;60852;52.190;4.422;2023-07-02T05:48:50;22.67;48.67
68943;DHT22;60852;52.190;4.422;2023-07-02T05:51:23;21.63;50.97
68943;DHT22;60852;52.190;4.422;2023-07-02T05:53:49;21.88;50.01
68943;DHT22;60852;52.190;4.422;2023-07-02T05:56:15;22.02;49.15
68943;DHT22;60852;52.190;4.422;2023-07-02T05:58:40;22.23;49.06
68943;DHT22;60852;52.190;4.422;2023-07-02T06:01:06;22.96;47.98
68943;DHT22;60852;52.190;4.422;2023-07-02T06:03:32;23.22;47.06
68943;DHT22;60852;52.190;4.422;2023-07-02T06:05:57;23.66;46.07
68943;DHT22;60852;52.190;4.422;2023-07-02T06:08:23;23.13;47.42
68943;DHT22;60852;52.190;4.422;2023-07-02T06:10:48;23.30;47.67
68943;DHT22;60852;52.190;4.422;2023-07-02T06:13:14;22.96;48.67
68943;DHT22;60852;52.190;4.422;2023-07-02T06:15:40;23.13;48.44
68943;DHT22;60852;52.190;4.422;2023-07-02T06:18:06;23.54;46.77
68943;DHT22;60852;52.190;4.422;2023-07-02T06:20:31;23.88;46.83
68943;DHT22;60852;52.190;4.422;2023-07-02T06:22:57;24.21;45.69
68943;DHT22;60852;52.190;4.422;2023-07-02T06:25:23;24.10;45.93
68943;DHT22;60852;52.190;4.422;2023-07-02T06:27:48;23.69;46.77
68943;DHT22;60852;52.190;4.422;2023-07-02T06:30:14;23.40;46.70
68943;DHT22;60852;52.190;4.422;2023-07-02T06:32:40;22.47;48.77
68943;DHT22;60852;52.190;4.422;2023-07-02T06:35:06;21.17;52.84
68943;DHT22;60852;52.190;4.422;2023-07-02T06:37:32;20.65;55.04
68943;DHT22;60852;52.190;4.422;2023-07-02T06:39:58;20.24;56.05
68943;DHT22;60852;52.190;4.422;2023-07-02T06:42:24;20.04;56.21
68943;DHT22;60852;52.190;4.422;2023-07-02T06:44:50;19.87;57.38
68943;DHT22;60852;52.190;4.422;2023-07-02T06:47:15;19.89;56.37
68943;DHT22;60852;52.190;4.422;2023-07-02T06:49:41;19.49;57.41
68943;DHT22;60852;52.190;4.422;2023-07-02T06:52:06;19.31;57.02
68943;DHT22;60852;52.190;4.422;2023-07-02T06:54:32;19.39;58.33
68943;DHT22;60852;52.190;4.422;2023-07-02T06:56:58;19.37;57.13
68943;DHT22;60852;52.190;4.422;2023-07-02T06:59:23;19.30;58.07
68943;DHT22;60852;52.190;4.422;2023-07-02T07:01:50;19.30;58.04
68943;DHT22;60852;52.190;4.422;2023-07-02T07:04:15;19.41;58.32
68943;DHT22;60852;52.190;4.422;2023-07-02T07:06:41;19.43;57.45
68943;DHT22;60852;52.190;4.422;2023-07-02T07:09:07;19.31;56.12
68943;DHT22;60852;52.190;4.422;2023-07-02T07:11:33;19.26;57.43
68943;DHT22;60852;52.190;4.422;2023-07-02T07:13:58;19.13;57.89
68943;DHT22;60852;52.190;4.422;2023-07-02T07:16:24;19.18;58.28
68943;DHT22;60852;52.190;4.422;2023-07-02T07:18:49;19.10;58.71
68943;DHT22;60852;52.190;4.422;2023-07-02T07:21:15;19.12;60.31
68943;DHT22;60852;52.190;4.422;2023-07-02T07:23:40;19.20;59.64
68943;DHT22;60852;52.190;4.422;2023-07-02T07:26:06;19.19;58.74
68943;DHT22;60852;52.190;4.422;2023-07-02T07:28:32;19.22;58.54
68943;DHT22;60852;52.190;4.422;2023-07-02T07:30:57;18.99;58.48
68943;DHT22;60852;52.190;4.422;2023-07-02T07:33:23;18.94;58.81
68943;DHT22;60852;52.190;4.422;2023-07-02T07:35:49;18.95;58.78
68943;DHT22;60852;52.190;4.422;2023-07-02T07:38:15;18.94;59.13
68943;DHT22;60852;52.190;4.422;2023-07-02T07:40:41;18.82;59.04
68943;DHT22;60852;52.190;4.422;2023-07-02T07:43:07;18.87;59.32
68943;DHT22;60852;52.190;4.422;2023-07-02T07:45:33;19.12;58.72
68943;DHT22;60852;52.190;4.422;2023-07-02T07:47:58;19.15;58.43
68943;DHT22;60852;52.190;4.422;2023-07-02T07:50:24;19.20;59.15
68943;DHT22;60852;52.190;4.422;2023-07-02T07:52:50;19.15;57.15
68943;DHT22;60852;52.190;4.422;2023-07-02T07:55:16;19.03;57.12
68943;DHT22;60852;52.190;4.422;2023-07-02T07:57:42;19.02;56.30
68943;DHT22;60852;52.190;4.422;2023-07-02T08:00:07;19.00;57.70
68943;DHT22;60852;52.190;4.422;2023-07-02T08:02:35;19.08;58.77
68943;DHT22;60852;52.190;4.422;2023-07-02T08:05:01;19.16;59.63
68943;DHT22;60852;52.190;4.422;2023-07-02T08:07:27;19.26;58.81
68943;DHT22;60852;52.190;4.422;2023-07-02T08:09:53;19.36;58.32
68943;DHT22;60852;52.190;4.422;2023-07-02T08:12:18;19.41;58.73
68943;DHT22;60852;52.190;4.422;2023-07-02T08:14:44;19.40;58.54
68943;DHT22;60852;52.190;4.422;2023-07-02T08:17:09;19.54;59.67
68943;DHT22;60852;52.190;4.422;2023-07-02T08:19:35;19.54;58.70
68943;DHT22;60852;52.190;4.422;2023-07-02T08:22:00;19.33;59.26
68943;DHT22;60852;52.190;4.422;2023-07-02T08:24:26;19.26;60.88
68943;DHT22;60852;52.190;4.422;2023-07-02T08:26:51;19.37;60.81
68943;DHT22;60852;52.190;4.422;2023-07-02T08:29:17;19.33;60.51
68943;DHT22;60852;52.190;4.422;2023-07-02T08:31:42;19.16;58.97
68943;DHT22;60852;52.190;4.422;2023-07-02T08:34:08;19.10;58.55
68943;DHT22;60852;52.190;4.422;2023-07-02T08:36:34;19.10;58.78
68943;DHT22;60852;52.190;4.422;2023-07-02T08:38:59;19.18;59.56
68943;DHT22;60852;52.190;4.422;2023-07-02T08:41:25;19.10;59.69
68943;DHT22;60852;52.190;4.422;2023-07-02T08:43:55;19.12;60.05
68943;DHT22;60852;52.190;4.422;2023-07-02T08:46:21;19.08;60.05
68943;DHT22;60852;52.190;4.422;2023-07-02T08:48:47;18.91;60.97
68943;DHT22;60852;52.190;4.422;2023-07-02T08:51:13;18.88;61.53
68943;DHT22;60852;52.190;4.422;2023-07-02T08:53:38;18.88;61.32
68943;DHT22;60852;52.190;4.422;2023-07-02T08:56:04;18.91;61.69
68943;DHT22;60852;52.190;4.422;2023-07-02T08:58:30;18.99;59.57
68943;DHT22;60852;52.190;4.422;2023-07-02T09:01:12;19.05;59.69
68943;DHT22;60852;52.190;4.422;2023-07-02T09:03:39;19.09;61.51
68943;DHT22;60852;52.190;4.422;2023-07-02T09:06:09;18.99;59.83
68943;DHT22;60852;52.190;4.422;2023-07-02T09:08:36;19.03;59.81
68943;DHT22;60852;52.190;4.422;2023-07-02T09:11:19;19.10;60.20
68943;DHT22;60852;52.190;4.422;2023-07-02T09:13:46;19.18;60.54
68943;DHT22;60852;52.190;4.422;2023-07-02T09:16:31;19.30;59.28
68943;DHT22;60852;52.190;4.422;2023-07-02T09:19:08;19.20;58.88
68943;DHT22;60852;52.190;4.422;2023-07-02T09:21:48;19.22;59.51
68943;DHT22;60852;52.190;4.422;2023-07-02T09:24:19;19.33;60.42
68943;DHT22;60852;52.190;4.422;2023-07-02T09:26:49;19.36;58.41
68943;DHT22;60852;52.190;4.422;2023-07-02T09:31:55;19.18;59.93
68943;DHT22;60852;52.190;4.422;2023-07-02T09:34:30;19.19;58.77
68943;DHT22;60852;52.190;4.422;2023-07-02T09:37:00;19.05;58.48
68943;DHT22;60852;52.190;4.422;2023-07-02T09:39:31;19.10;58.11
68943;DHT22;60852;52.190;4.422;2023-07-02T09:41:59;19.06;58.55
68943;DHT22;60852;52.190;4.422;2023-07-02T09:44:30;19.09;58.15
68943;DHT22;60852;52.190;4.422;2023-07-02T09:47:04;19.23;59.08
68943;DHT22;60852;52.190;4.422;2023-07-02T09:49:35;19.23;59.80
68943;DHT22;60852;52.190;4.422;2023-07-02T09:52:04;19.30;59.15
68943;DHT22;60852;52.190;4.422;2023-07-02T09:54:30;19.51;58.55
68943;DHT22;60852;52.190;4.422;2023-07-02T09:56:58;19.84;57.36
68943;DHT22;60852;52.190;4.422;2023-07-02T09:59:24;20.60;56.39
68943;DHT22;60852;52.190;4.422;2023-07-02T10:01:50;21.48;54.31
68943;DHT22;60852;52.190;4.422;2023-07-02T10:04:19;21.78;51.22
68943;DHT22;60852;52.190;4.422;2023-07-02T10:09:11;22.36;46.96
68943;DHT22;60852;52.190;4.422;2023-07-02T10:11:37;22.33;48.63
68943;DHT22;60852;52.190;4.422;2023-07-02T10:14:02;22.18;48.81
68943;DHT22;60852;52.190;4.422;2023-07-02T10:16:28;22.32;49.86
68943;DHT22;60852;52.190;4.422;2023-07-02T10:19:11;22.65;49.81
68943;DHT22;60852;52.190;4.422;2023-07-02T10:21:37;22.57;49.34
68943;DHT22;60852;52.190;4.422;2023-07-02T10:24:14;22.79;48.49
68943;DHT22;60852;52.190;4.422;2023-07-02T10:26:56;22.79;48.24
68943;DHT22;60852;52.190;4.422;2023-07-02T10:29:26;22.74;48.40
68943;DHT22;60852;52.190;4.422;2023-07-02T10:31:56;22.81;48.60
68943;DHT22;60852;52.190;4.422;2023-07-02T10:34:33;22.81;49.15
68943;DHT22;60852;52.190;4.422;2023-07-02T10:37:03;22.92;47.49
68943;DHT22;60852;52.190;4.422;2023-07-02T10:39:30;23.01;49.18
68943;DHT22;60852;52.190;4.422;2023-07-02T10:42:09;23.23;47.91
68943;DHT22;60852;52.190;4.422;2023-07-02T10:44:47;23.24;48.84
68943;DHT22;60852;52.190;4.422;2023-07-02T10:47:13;23.11;48.55
68943;DHT22;60852;52.190;4.422;2023-07-02T10:49:38;22.95;48.85
68943;DHT22;60852;52.190;4.422;2023-07-02T10:52:04;22.84;49.18
68943;DHT22;60852;52.190;4.422;2023-07-02T10:54:40;22.43;49.79
68943;DHT22;60852;52.190;4.422;2023-07-02T10:57:09;22.27;50.34
68943;DHT22;60852;52.190;4.422;2023-07-02T10:59:35;21.92;49.89
68943;DHT22;60852;52.190;4.422;2023-07-02T11:02:01;21.72;50.45
68943;DHT22;60852;52.190;4.422;2023-07-02T11:04:30;21.63;50.66
68943;DHT22;60852;52.190;4.422;2023-07-02T11:06:56;21.37;52.55
68943;DHT22;60852;52.190;4.422;2023-07-02T11:09:21;21.35;52.94
68943;DHT22;60852;52.190;4.422;2023-07-02T11:11:52;21.24;52.98
68943;DHT22;60852;52.190;4.422;2023-07-02T11:16:56;21.44;53.43
68943;DHT22;60852;52.190;4.422;2023-07-02T11:19:22;21.39;52.32
68943;DHT22;60852;52.190;4.422;2023-07-02T11:21:56;21.45;52.97
68943;DHT22;60852;52.190;4.422;2023-07-02T11:26:56;21.15;52.22
68943;DHT22;60852;52.190;4.422;2023-07-02T11:29:22;21.15;53.32
68943;DHT22;60852;52.190;4.422;2023-07-02T11:31:48;21.24;53.45
68943;DHT22;60852;52.190;4.422;2023-07-02T11:34:14;21.37;54.60
68943;DHT22;60852;52.190;4.422;2023-07-02T11:36:40;21.00;54.08
68943;DHT22;60852;52.190;4.422;2023-07-02T11:39:06;20.83;54.47
68943;DHT22;60852;52.190;4.422;2023-07-02T11:41:39;20.91;54.31
68943;DHT22;60852;52.190;4.422;2023-07-02T11:44:06;20.98;54.10
68943;DHT22;60852;52.190;4.422;2023-07-02T11:46:31;21.20;53.92
68943;DHT22;60852;52.190;4.422;2023-07-02T11:48:57;21.18;53.37
68943;DHT22;60852;52.190;4.422;2023-07-02T11:51:22;21.25;53.72
68943;DHT22;60852;52.190;4.422;2023-07-02T11:53:48;21.25;53.40
68943;DHT22;60852;52.190;4.422;2023-07-02T11:56:13;21.38;53.41
68943;DHT22;60852;52.190;4.422;2023-07-02T11:58:41;21.31;52.37
68943;DHT22;60852;52.190;4.422;2023-07-02T12:01:07;21.48;52.90
68943;DHT22;60852;52.190;4.422;2023-07-02T12:03:33;21.46;53.59
68943;DHT22;60852;52.190;4.422;2023-07-02T12:05:58;21.41;54.59
68943;DHT22;60852;52.190;4.422;2023-07-02T12:08:25;21.27;52.47
68943;DHT22;60852;52.190;4.422;2023-07-02T12:10:51;21.10;52.76
68943;DHT22;60852;52.190;4.422;2023-07-02T12:13:17;20.96;52.64
68943;DHT22;60852;52.190;4.422;2023-07-02T12:15:42;20.87;52.24
68943;DHT22;60852;52.190;4.422;2023-07-02T12:18:09;20.79;54.40
68943;DHT22;60852;52.190;4.422;2023-07-02T12:20:34;21.06;51.73
68943;DHT22;60852;52.190;4.422;2023-07-02T12:23:00;21.18;52.90
68943;DHT22;60852;52.190;4.422;2023-07-02T12:25:26;21.12;53.74
68943;DHT22;60852;52.190;4.422;2023-07-02T12:27:51;21.21;53.19
68943;DHT22;60852;52.190;4.422;2023-07-02T12:30:17;21.30;51.93
68943;DHT22;60852;52.190;4.422;2023-07-02T12:32:44;21.28;52.31
68943;DHT22;60852;52.190;4.422;2023-07-02T12:35:11;21.14;51.25
68943;DHT22;60852;52.190;4.422;2023-07-02T12:37:47;21.11;52.77
68943;DHT22;60852;52.190;4.422;2023-07-02T12:40:14;21.00;53.35
68943;DHT22;60852;52.190;4.422;2023-07-02T12:42:41;21.06;51.80
68943;DHT22;60852;52.190;4.422;2023-07-02T12:45:08;21.07;52.83
68943;DHT22;60852;52.190;4.422;2023-07-02T12:47:33;21.18;52.98
68943;DHT22;60852;52.190;4.422;2023-07-02T12:49:59;21.28;52.32
68943;DHT22;60852;52.190;4.422;2023-07-02T12:52:24;21.34;51.71
68943;DHT22;60852;52.190;4.422;2023-07-02T12:54:50;21.30;52.76
68943;DHT22;60852;52.190;4.422;2023-07-02T12:57:17;21.23;52.21
68943;DHT22;60852;52.190;4.422;2023-07-02T12:59:43;21.17;52.07
68943;DHT22;60852;52.190;4.422;2023-07-02T13:02:09;20.84;52.71
68943;DHT22;60852;52.190;4.422;2023-07-02T13:04:35;21.04;53.22
68943;DHT22;60852;52.190;4.422;2023-07-02T13:07:00;21.18;51.10
68943;DHT22;60852;52.190;4.422;2023-07-02T13:09:26;20.86;52.37
68943;DHT22;60852;52.190;4.422;2023-07-02T13:11:51;21.07;52.33
68943;DHT22;60852;52.190;4.422;2023-07-02T13:14:17;21.28;51.60
68943;DHT22;60852;52.190;4.422;2023-07-02T13:16:42;21.27;51.80
68943;DHT22;60852;52.190;4.422;2023-07-02T13:19:08;21.20;50.86
68943;DHT22;60852;52.190;4.422;2023-07-02T13:21:33;21.08;52.55
68943;DHT22;60852;52.190;4.422;2023-07-02T13:23:59;21.18;51.19
68943;DHT22;60852;52.190;4.422;2023-07-02T13:26:24;21.23;51.70
68943;DHT22;60852;52.190;4.422;2023-07-02T13:28:50;21.18;52.28
68943;DHT22;60852;52.190;4.422;2023-07-02T13:31:15;21.30;51.30
68943;DHT22;60852;52.190;4.422;2023-07-02T13:33:42;21.37;51.78
68943;DHT22;60852;52.190;4.422;2023-07-02T13:36:08;21.08;52.39
68943;DHT22;60852;52.190;4.422;2023-07-02T13:38:33;21.17;53.02
68943;DHT22;60852;52.190;4.422;2023-07-02T13:40:59;21.17;51.85
68943;DHT22;60852;52.190;4.422;2023-07-02T13:43:25;21.18;51.13
68943;DHT22;60852;52.190;4.422;2023-07-02T13:45:51;20.94;51.32
68943;DHT22;60852;52.190;4.422;2023-07-02T13:48:17;21.03;52.45
68943;DHT22;60852;52.190;4.422;2023-07-02T13:50:42;21.23;50.75
68943;DHT22;60852;52.190;4.422;2023-07-02T13:53:08;21.24;51.44
68943;DHT22;60852;52.190;4.422;2023-07-02T13:55:34;21.24;50.72
68943;DHT22;60852;52.190;4.422;2023-07-02T13:58:00;20.91;51.29
68943;DHT22;60852;52.190;4.422;2023-07-02T14:00:29;21.01;52.49
68943;DHT22;60852;52.190;4.422;2023-07-02T14:02:55;21.25;49.66
68943;DHT22;60852;52.190;4.422;2023-07-02T14:05:21;21.38;48.95
68943;DHT22;60852;52.190;4.422;2023-07-02T14:07:47;21.54;49.91
68943;DHT22;60852;52.190;4.422;2023-07-02T14:10:13;21.35;49.77
68943;DHT22;60852;52.190;4.422;2023-07-02T14:12:41;21.42;49.91
68943;DHT22;60852;52.190;4.422;2023-07-02T14:15:08;21.46;49.56
68943;DHT22;60852;52.190;4.422;2023-07-02T14:17:33;21.41;46.79
68943;DHT22;60852;52.190;4.422;2023-07-02T14:19:59;21.45;48.46
68943;DHT22;60852;52.190;4.422;2023-07-02T14:22:25;21.35;46.63
68943;DHT22;60852;52.190;4.422;2023-07-02T14:24:50;21.38;46.85
68943;DHT22;60852;52.190;4.422;2023-07-02T14:27:16;20.97;48.47
68943;DHT22;60852;52.190;4.422;2023-07-02T14:29:41;21.04;50.21
68943;DHT22;60852;52.190;4.422;2023-07-02T14:32:07;21.21;48.41
68943;DHT22;60852;52.190;4.422;2023-07-02T14:34:33;21.25;47.50
68943;DHT22;60852;52.190;4.422;2023-07-02T14:36:59;21.34;47.50
68943;DHT22;60852;52.190;4.422;2023-07-02T14:39:25;21.37;48.92
68943;DHT22;60852;52.190;4.422;2023-07-02T14:41:50;21.42;49.44
68943;DHT22;60852;52.190;4.422;2023-07-02T14:44:16;21.15;49.21
68943;DHT22;60852;52.190;4.422;2023-07-02T14:46:43;21.07;50.84
68943;DHT22;60852;52.190;4.422;2023-07-02T14:49:09;21.12;51.85
68943;DHT22;60852;52.190;4.422;2023-07-02T14:51:35;21.14;50.34
68943;DHT22;60852;52.190;4.422;2023-07-02T14:54:01;21.06;50.38
68943;DHT22;60852;52.190;4.422;2023-07-02T14:56:29;20.97;50.67
68943;DHT22;60852;52.190;4.422;2023-07-02T14:58:55;21.12;50.14
68943;DHT22;60852;52.190;4.422;2023-07-02T15:01:20;21.11;50.22
68943;DHT22;60852;52.190;4.422;2023-07-02T15:03:46;21.04;50.00
68943;DHT22;60852;52.190;4.422;2023-07-02T15:06:14;20.72;50.72
68943;DHT22;60852;52.190;4.422;2023-07-02T15:08:41;20.75;51.29
68943;DHT22;60852;52.190;4.422;2023-07-02T15:11:08;20.62;50.26
68943;DHT22;60852;52.190;4.422;2023-07-02T15:13:33;20.79;51.20
68943;DHT22;60852;52.190;4.422;2023-07-02T15:15:59;20.75;51.06
68943;DHT22;60852;52.190;4.422;2023-07-02T15:18:25;20.76;51.96
68943;DHT22;60852;52.190;4.422;2023-07-02T15:20:52;20.97;51.71
68943;DHT22;60852;52.190;4.422;2023-07-02T15:23:19;21.28;50.16
68943;DHT22;60852;52.190;4.422;2023-07-02T15:25:53;21.25;49.89
68943;DHT22;60852;52.190;4.422;2023-07-02T15:28:20;20.98;51.02
68943;DHT22;60852;52.190;4.422;2023-07-02T15:30:54;21.04;50.91
68943;DHT22;60852;52.190;4.422;2023-07-02T15:33:20;21.01;50.85
68943;DHT22;60852;52.190;4.422;2023-07-02T15:35:46;21.17;49.98
68943;DHT22;60852;52.190;4.422;2023-07-02T15:38:11;21.24;51.05